Time;durP1;ratioP1;P1;durP2;ratioP2;P2;SDS_P1;SDS_P2;PMS_P1;PMS_P2;Temp;Humidity;BMP_temperature;BMP_pressure;BME280_temperature;BME280_humidity;BME280_pressure;Samples;Min_cycle;Max_cycle;Signal;HPM_P1;HPM_P2
2022/02/28 00:02:05;;;;;;;2.87;1.67;;;;;;;;;;5072147;28;20033;-71
2022/02/28 00:04:32;;;;;;;8.23;1.70;;;;;;;;;;5054648;28;20028;-72
2022/02/28 00:06:59;;;;;;;5.90;1.67;;;;;;;;;;5070381;28;20025;-73
2022/02/28 00:09:25;;;;;;;3.30;1.53;;;;;;;;;;5074013;28;20028;-72
2022/02/28 00:11:52;;;;;;;3.03;1.73;;;;;;;;;;5074353;28;20024;-72
2022/02/28 00:14:19;;;;;;;2.20;1.40;;;;;;;;;;5071151;28;20025;-72
2022/02/28 00:16:45;;;;;;;2.70;1.47;;;;;;;;;;5069006;28;20071;-71
2022/02/28 00:19:12;;;;;;;4.93;1.60;;;;;;;;;;5068880;28;20487;-71
2022/02/28 00:21:39;;;;;;;2.90;1.53;;;;;;;;;;5069039;28;20032;-71
2022/02/28 00:24:06;;;;;;;3.33;1.53;;;;;;;;;;5071817;28;20479;-71
2022/02/28 00:26:33;;;;;;;4.07;1.80;;;;;;;;;;5073549;28;20033;-71
2022/02/28 00:29:00;;;;;;;3.37;1.57;;;;;;;;;;5073963;28;20033;-71
2022/02/28 00:31:26;;;;;;;5.67;1.80;;;;;;;;;;5073984;28;20428;-71
2022/02/28 00:33:53;;;;;;;3.70;1.67;;;;;;;;;;5073248;28;20028;-71
2022/02/28 00:36:20;;;;;;;4.83;1.90;;;;;;;;;;5070724;28;20487;-71
2022/02/28 00:38:46;;;;;;;3.33;1.50;;;;;;;;;;5069016;28;20061;-71
2022/02/28 00:41:14;;;;;;;2.63;1.43;;;;;;;;;;5068580;28;20509;-71
2022/02/28 00:43:41;;;;;;;3.50;1.83;;;;;;;;;;5068423;28;20031;-71
2022/02/28 00:46:07;;;;;;;2.80;1.43;;;;;;;;;;5069727;28;20017;-71
2022/02/28 00:48:34;;;;;;;4.43;1.43;;;;;;;;;;5073575;28;20040;-71
2022/02/28 00:51:01;;;;;;;3.87;1.73;;;;;;;;;;5073586;28;20036;-71
2022/02/28 00:53:28;;;;;;;5.90;1.80;;;;;;;;;;5073482;28;20039;-71
2022/02/28 00:55:54;;;;;;;2.40;1.30;;;;;;;;;;5073426;28;20024;-71
2022/02/28 00:58:22;;;;;;;3.50;1.50;;;;;;;;;;5071314;28;20028;-71
2022/02/28 01:00:49;;;;;;;3.90;1.50;;;;;;;;;;5067831;28;20036;-71
2022/02/28 01:03:16;;;;;;;2.63;1.40;;;;;;;;;;5068292;28;20048;-71
2022/02/28 01:05:42;;;;;;;6.53;1.53;;;;;;;;;;5068051;28;20699;-71
2022/02/28 01:08:10;;;;;;;5.23;1.60;;;;;;;;;;5069316;28;20032;-71
2022/02/28 01:10:36;;;;;;;30.30;4.70;;;;;;;;;;5073096;28;20017;-71
2022/02/28 01:13:04;;;;;;;3.63;1.57;;;;;;;;;;5073347;28;20025;-71
2022/02/28 01:15:31;;;;;;;3.67;1.50;;;;;;;;;;5072950;28;20063;-71
2022/02/28 01:17:58;;;;;;;3.00;1.30;;;;;;;;;;5072778;28;20066;-71
2022/02/28 01:20:24;;;;;;;3.27;1.40;;;;;;;;;;5071340;28;20055;-71
2022/02/28 01:22:51;;;;;;;2.57;1.50;;;;;;;;;;5067722;28;20444;-71
2022/02/28 01:25:18;;;;;;;1.93;1.40;;;;;;;;;;5067854;28;20021;-71
2022/02/28 01:27:44;;;;;;;5.23;1.70;;;;;;;;;;5067594;28;20029;-72
2022/02/28 01:30:11;;;;;;;3.47;1.27;;;;;;;;;;5068488;28;20364;-71
2022/02/28 01:32:38;;;;;;;3.13;1.40;;;;;;;;;;5072885;28;20033;-71
2022/02/28 01:35:06;;;;;;;3.07;1.67;;;;;;;;;;5072446;28;20025;-71
2022/02/28 01:37:32;;;;;;;5.00;1.60;;;;;;;;;;5072477;28;20028;-71
2022/02/28 01:39:59;;;;;;;3.00;1.40;;;;;;;;;;5072625;28;20444;-71
2022/02/28 01:42:26;;;;;;;3.97;1.90;;;;;;;;;;5071353;28;20032;-70
2022/02/28 01:44:53;;;;;;;3.60;1.60;;;;;;;;;;5066681;28;20028;-71
2022/02/28 01:47:19;;;;;;;5.33;1.63;;;;;;;;;;5066984;28;20078;-71
2022/02/28 01:49:46;;;;;;;2.57;1.60;;;;;;;;;;5047467;28;20025;-71
2022/02/28 01:52:14;;;;;;;4.97;1.40;;;;;;;;;;5064273;28;20501;-71
2022/02/28 01:54:41;;;;;;;4.50;1.47;;;;;;;;;;5072554;28;20076;-71
2022/02/28 01:57:08;;;;;;;2.00;1.10;;;;;;;;;;5072347;28;20055;-71
2022/02/28 01:59:35;;;;;;;2.20;1.37;;;;;;;;;;5072573;28;20021;-70
2022/02/28 02:02:01;;;;;;;4.37;1.67;;;;;;;;;;5071951;28;20139;-71
2022/02/28 02:04:28;;;;;;;2.10;1.03;;;;;;;;;;5071692;28;20032;-71
2022/02/28 02:06:55;;;;;;;2.97;1.10;;;;;;;;;;5066843;28;20023;-70
2022/02/28 02:09:21;;;;;;;2.73;1.30;;;;;;;;;;5066747;28;20067;-71
2022/02/28 02:11:48;;;;;;;2.87;1.40;;;;;;;;;;5067034;28;20032;-71
2022/02/28 02:14:15;;;;;;;3.90;1.40;;;;;;;;;;5066991;28;20557;-69
2022/02/28 02:16:42;;;;;;;3.87;1.30;;;;;;;;;;5071804;28;20032;-70
2022/02/28 02:19:12;;;;;;;7.40;1.50;;;;;;;;;;5072154;28;20028;-71
2022/02/28 02:21:38;;;;;;;3.27;1.33;;;;;;;;;;5072092;28;20058;-70
2022/02/28 02:24:05;;;;;;;3.13;1.30;;;;;;;;;;5072013;28;20025;-70
2022/02/28 02:26:32;;;;;;;2.13;1.20;;;;;;;;;;5074465;28;20016;-71
2022/02/28 02:28:59;;;;;;;1.63;1.10;;;;;;;;;;5067435;28;20044;-68
2022/02/28 02:31:26;;;;;;;2.43;1.37;;;;;;;;;;5078536;28;20055;-67
2022/02/28 02:33:53;;;;;;;1.83;0.90;;;;;;;;;;5067092;28;20024;-69
2022/02/28 02:36:20;;;;;;;2.90;1.53;;;;;;;;;;5076936;28;20483;-69
2022/02/28 02:38:47;;;;;;;4.60;2.00;;;;;;;;;;5071589;28;20039;-66
2022/02/28 02:41:14;;;;;;;4.63;2.33;;;;;;;;;;5071975;28;20467;-67
2022/02/28 02:43:40;;;;;;;3.90;1.97;;;;;;;;;;5071304;28;20016;-66
2022/02/28 02:46:07;;;;;;;7.47;2.20;;;;;;;;;;5072601;28;20028;-65
2022/02/28 02:48:34;;;;;;;4.97;1.87;;;;;;;;;;5072100;28;20428;-68
2022/02/28 02:51:01;;;;;;;6.40;2.17;;;;;;;;;;5067163;28;20024;-69
2022/02/28 02:53:27;;;;;;;5.87;2.10;;;;;;;;;;5067073;28;20020;-69
2022/02/28 02:55:54;;;;;;;4.83;1.80;;;;;;;;;;5067862;28;20024;-65
2022/02/28 02:58:21;;;;;;;4.67;2.00;;;;;;;;;;5071125;28;20085;-69
2022/02/28 03:00:49;;;;;;;5.07;1.73;;;;;;;;;;5082890;28;20019;-67
2022/02/28 03:03:19;;;;;;;3.07;1.57;;;;;;;;;;5096242;28;20032;-64
2022/02/28 03:05:46;;;;;;;5.10;1.90;;;;;;;;;;5096264;28;20031;-65
2022/02/28 03:08:14;;;;;;;3.80;1.90;;;;;;;;;;5095897;28;20040;-66
2022/02/28 03:10:40;;;;;;;4.40;2.00;;;;;;;;;;5096098;28;20020;-67
2022/02/28 03:13:07;;;;;;;5.63;1.83;;;;;;;;;;5091433;28;20036;-66
2022/02/28 03:15:34;;;;;;;5.27;1.90;;;;;;;;;;5090573;28;20509;-65
2022/02/28 03:18:01;;;;;;;7.27;2.27;;;;;;;;;;5090803;28;20471;-65
2022/02/28 03:20:29;;;;;;;4.47;2.20;;;;;;;;;;5089230;28;20059;-68
2022/02/28 03:22:56;;;;;;;3.17;1.60;;;;;;;;;;5074254;28;20028;-68
2022/02/28 03:25:24;;;;;;;4.00;1.70;;;;;;;;;;5074215;28;20021;-67
2022/02/28 03:27:51;;;;;;;5.60;1.63;;;;;;;;;;5075227;28;20032;-67
2022/02/28 03:30:17;;;;;;;5.50;1.50;;;;;;;;;;5075020;28;20067;-71
2022/02/28 03:32:44;;;;;;;2.90;1.50;;;;;;;;;;5075289;28;20028;-68
2022/02/28 03:35:11;;;;;;;5.73;1.80;;;;;;;;;;5081957;28;20028;-66
2022/02/28 03:37:37;;;;;;;3.43;1.67;;;;;;;;;;5072225;28;20550;-68
2022/02/28 03:40:05;;;;;;;4.60;1.70;;;;;;;;;;5070136;28;20090;-66
2022/02/28 03:42:31;;;;;;;3.23;1.93;;;;;;;;;;5070445;28;20039;-66
2022/02/28 03:44:58;;;;;;;3.50;1.90;;;;;;;;;;5073110;28;20106;-65
2022/02/28 03:47:25;;;;;;;3.90;1.70;;;;;;;;;;5074412;28;20093;-65
2022/02/28 03:49:52;;;;;;;4.00;1.80;;;;;;;;;;5074977;28;20111;-65
2022/02/28 03:52:18;;;;;;;4.23;1.50;;;;;;;;;;5074872;28;20043;-67
2022/02/28 03:54:45;;;;;;;3.07;1.30;;;;;;;;;;5074525;28;20052;-68
2022/02/28 03:57:12;;;;;;;4.50;1.40;;;;;;;;;;5071177;28;20060;-67
2022/02/28 03:59:39;;;;;;;3.37;1.50;;;;;;;;;;5070069;28;20016;-69
2022/02/28 04:02:05;;;;;;;126.83;45.63;;;;;;;;;;5069453;28;20060;-65
2022/02/28 04:04:32;;;;;;;45.53;17.70;;;;;;;;;;5069181;28;20478;-66
2022/02/28 04:06:59;;;;;;;25.97;10.13;;;;;;;;;;5071709;28;20024;-65
2022/02/28 04:09:27;;;;;;;18.47;6.77;;;;;;;;;;5073662;28;20479;-65
2022/02/28 04:11:53;;;;;;;9.67;3.80;;;;;;;;;;5074232;28;20078;-65
2022/02/28 04:14:20;;;;;;;8.80;2.97;;;;;;;;;;5074576;28;20032;-65
2022/02/28 04:16:47;;;;;;;6.07;2.07;;;;;;;;;;5074515;28;20077;-66
2022/02/28 04:19:14;;;;;;;14.20;4.53;;;;;;;;;;5071311;28;20066;-66
2022/02/28 04:21:41;;;;;;;62.03;16.63;;;;;;;;;;5068490;28;20028;-65
2022/02/28 04:24:07;;;;;;;103.90;29.40;;;;;;;;;;5068157;28;20021;-65
2022/02/28 04:26:36;;;;;;;24.57;7.87;;;;;;;;;;5066921;28;20025;-65
2022/02/28 04:29:03;;;;;;;6.77;3.03;;;;;;;;;;5069905;28;20020;-65
2022/02/28 04:31:30;;;;;;;6.00;2.70;;;;;;;;;;5071672;28;20039;-65
2022/02/28 04:33:57;;;;;;;121.80;32.97;;;;;;;;;;5072177;28;20033;-65
2022/02/28 04:36:23;;;;;;;20.43;7.67;;;;;;;;;;5071600;28;20391;-66
2022/02/28 04:38:50;;;;;;;40.30;12.07;;;;;;;;;;5070460;28;20031;-65
2022/02/28 04:41:17;;;;;;;21.90;8.17;;;;;;;;;;5070773;28;20050;-65
2022/02/28 04:43:43;;;;;;;10.87;4.40;;;;;;;;;;5068555;28;20106;-65
2022/02/28 04:46:10;;;;;;;4.73;2.47;;;;;;;;;;5064026;28;20031;-65
2022/02/28 04:48:37;;;;;;;4.63;2.37;;;;;;;;;;5048562;28;20484;-65
2022/02/28 04:51:03;;;;;;;5.50;2.13;;;;;;;;;;5050572;28;20379;-65
2022/02/28 04:53:30;;;;;;;7.13;2.50;;;;;;;;;;5053494;28;20029;-67
2022/02/28 04:55:58;;;;;;;5.80;2.40;;;;;;;;;;5053699;28;20029;-65
2022/02/28 04:58:25;;;;;;;6.60;2.30;;;;;;;;;;5058780;28;20039;-64
2022/02/28 05:00:51;;;;;;;4.50;2.63;;;;;;;;;;5073408;28;20027;-65
2022/02/28 05:03:18;;;;;;;5.53;1.97;;;;;;;;;;5071316;28;20025;-65
2022/02/28 05:05:45;;;;;;;4.93;1.73;;;;;;;;;;5068300;28;20024;-64
2022/02/28 05:08:12;;;;;;;3.10;1.53;;;;;;;;;;5068033;28;20032;-64
2022/02/28 05:10:38;;;;;;;3.30;1.43;;;;;;;;;;5067847;28;20024;-65
2022/02/28 05:13:05;;;;;;;6.40;2.00;;;;;;;;;;5069422;28;20021;-65
2022/02/28 05:15:32;;;;;;;4.07;1.60;;;;;;;;;;5073016;28;20027;-65
2022/02/28 05:17:59;;;;;;;3.07;1.53;;;;;;;;;;5072926;28;20031;-65
2022/02/28 05:20:25;;;;;;;9.00;2.30;;;;;;;;;;5073197;28;20383;-64
2022/02/28 05:22:52;;;;;;;6.43;1.50;;;;;;;;;;5072605;28;20050;-65
2022/02/28 05:25:20;;;;;;;10.40;3.70;;;;;;;;;;5071079;28;20034;-66
2022/02/28 05:27:47;;;;;;;4.43;1.90;;;;;;;;;;5067054;28;20051;-65
2022/02/28 05:30:14;;;;;;;2.40;1.10;;;;;;;;;;5067818;28;20052;-65
2022/02/28 05:32:42;;;;;;;2.63;1.20;;;;;;;;;;5067670;28;20037;-65
2022/02/28 05:35:09;;;;;;;2.40;1.20;;;;;;;;;;5068629;28;20375;-64
2022/02/28 05:37:36;;;;;;;3.60;1.83;;;;;;;;;;5072399;28;20028;-65
2022/02/28 05:40:03;;;;;;;3.13;1.57;;;;;;;;;;5072600;28;20032;-64
2022/02/28 05:42:30;;;;;;;3.33;1.60;;;;;;;;;;5072035;28;20020;-66
2022/02/28 05:44:57;;;;;;;3.00;2.10;;;;;;;;;;5072731;28;20025;-64
2022/02/28 05:47:23;;;;;;;3.60;1.77;;;;;;;;;;5071116;28;20040;-64
2022/02/28 05:49:50;;;;;;;5.13;1.67;;;;;;;;;;5067469;28;20383;-65
2022/02/28 05:52:17;;;;;;;3.10;1.77;;;;;;;;;;5067116;28;20992;-65
2022/02/28 05:54:44;;;;;;;5.13;1.80;;;;;;;;;;5067113;28;20073;-64
2022/02/28 05:57:10;;;;;;;3.47;1.80;;;;;;;;;;5067335;28;20028;-65
2022/02/28 05:59:37;;;;;;;6.57;2.53;;;;;;;;;;5072209;28;20024;-64
2022/02/28 06:02:04;;;;;;;4.37;1.73;;;;;;;;;;5072341;28;20025;-64
2022/02/28 06:04:31;;;;;;;6.13;2.10;;;;;;;;;;5072685;28;20012;-64
2022/02/28 06:06:57;;;;;;;5.47;2.63;;;;;;;;;;5072248;28;20099;-64
2022/02/28 06:09:24;;;;;;;3.80;1.83;;;;;;;;;;5071284;28;20483;-64
2022/02/28 06:11:51;;;;;;;5.10;2.30;;;;;;;;;;5066659;28;20033;-64
2022/02/28 06:14:18;;;;;;;5.90;1.90;;;;;;;;;;5067297;28;20036;-64
2022/02/28 06:16:45;;;;;;;5.90;2.00;;;;;;;;;;5066529;28;20564;-64
2022/02/28 06:19:11;;;;;;;4.13;1.80;;;;;;;;;;5066674;28;20025;-65
2022/02/28 06:21:38;;;;;;;12.77;4.50;;;;;;;;;;5072096;28;20039;-65
2022/02/28 06:24:05;;;;;;;6.13;2.50;;;;;;;;;;5071829;28;20074;-65
2022/02/28 06:26:32;;;;;;;3.90;1.87;;;;;;;;;;5071859;28;20536;-65
2022/02/28 06:28:59;;;;;;;3.67;1.50;;;;;;;;;;5071850;28;20075;-64
2022/02/28 06:31:25;;;;;;;2.73;1.70;;;;;;;;;;5071050;28;20052;-64
2022/02/28 06:33:52;;;;;;;4.20;1.93;;;;;;;;;;5066374;28;20032;-64
2022/02/28 06:36:19;;;;;;;4.97;1.60;;;;;;;;;;5066772;28;20565;-64
2022/02/28 06:38:45;;;;;;;8.70;2.60;;;;;;;;;;5066861;28;20047;-64
2022/02/28 06:41:12;;;;;;;8.17;4.17;;;;;;;;;;5066539;28;20028;-64
2022/02/28 06:43:39;;;;;;;2.70;1.70;;;;;;;;;;5071601;28;20017;-64
2022/02/28 06:46:06;;;;;;;2.27;1.50;;;;;;;;;;5071864;28;20025;-64
2022/02/28 06:48:33;;;;;;;3.43;1.80;;;;;;;;;;5071740;28;20060;-65
2022/02/28 06:50:59;;;;;;;4.37;1.83;;;;;;;;;;5071968;28;20025;-64
2022/02/28 06:53:27;;;;;;;3.27;1.63;;;;;;;;;;5071756;28;20425;-64
2022/02/28 06:55:54;;;;;;;11.23;3.90;;;;;;;;;;5066668;28;20020;-64
2022/02/28 06:58:21;;;;;;;5.27;2.37;;;;;;;;;;5066606;28;20016;-64
2022/02/28 07:00:52;;;;;;;6.27;2.30;;;;;;;;;;5066033;28;20028;-64
2022/02/28 07:03:18;;;;;;;4.50;1.93;;;;;;;;;;5081753;28;20064;-65
2022/02/28 07:05:48;;;;;;;5.20;1.83;;;;;;;;;;5070691;28;20024;-64
2022/02/28 07:08:18;;;;;;;5.47;1.80;;;;;;;;;;5071723;28;20033;-65
2022/02/28 07:10:45;;;;;;;3.47;2.00;;;;;;;;;;5071389;28;20036;-64
2022/02/28 07:13:12;;;;;;;4.03;1.70;;;;;;;;;;5087390;28;20477;-64
2022/02/28 07:15:43;;;;;;;3.93;1.93;;;;;;;;;;5071617;28;20032;-64
2022/02/28 07:18:10;;;;;;;3.10;1.70;;;;;;;;;;5065938;28;20043;-64
2022/02/28 07:20:36;;;;;;;6.33;2.50;;;;;;;;;;5066231;28;20108;-64
2022/02/28 07:23:04;;;;;;;2.60;1.60;;;;;;;;;;5066341;28;20506;-64
2022/02/28 07:25:30;;;;;;;4.23;1.50;;;;;;;;;;5066402;28;20226;-64
2022/02/28 07:27:57;;;;;;;3.87;1.67;;;;;;;;;;5070701;28;20344;-64
2022/02/28 07:30:24;;;;;;;8.53;2.40;;;;;;;;;;5071406;28;20028;-64
2022/02/28 07:32:51;;;;;;;8.90;2.83;;;;;;;;;;5071211;28;20077;-65
2022/02/28 07:35:18;;;;;;;3.63;1.80;;;;;;;;;;5071597;28;20075;-64
2022/02/28 07:37:45;;;;;;;3.17;1.90;;;;;;;;;;5071175;28;20020;-64
2022/02/28 07:40:12;;;;;;;3.87;1.90;;;;;;;;;;5066647;28;20024;-64
2022/02/28 07:42:39;;;;;;;4.90;2.13;;;;;;;;;;5066156;28;20074;-64
2022/02/28 07:45:07;;;;;;;4.40;1.60;;;;;;;;;;5069665;28;20116;-64
2022/02/28 07:47:34;;;;;;;4.37;1.57;;;;;;;;;;5069686;28;20032;-64
2022/02/28 07:50:01;;;;;;;4.33;1.73;;;;;;;;;;5073032;28;20315;-64
2022/02/28 07:52:27;;;;;;;5.37;1.70;;;;;;;;;;5075082;28;20035;-64
2022/02/28 07:54:54;;;;;;;2.90;1.10;;;;;;;;;;5075010;28;20039;-64
2022/02/28 07:57:21;;;;;;;6.50;1.03;;;;;;;;;;5074842;28;20267;-64
2022/02/28 07:59:48;;;;;;;2.10;0.80;;;;;;;;;;5074931;28;20639;-64
2022/02/28 08:02:14;;;;;;;1.43;0.90;;;;;;;;;;5056044;28;20258;-64
2022/02/28 08:04:41;;;;;;;2.70;1.67;;;;;;;;;;5049493;28;20774;-65
2022/02/28 08:07:08;;;;;;;3.63;1.00;;;;;;;;;;5049181;28;20266;-64
2022/02/28 08:09:34;;;;;;;1.93;1.00;;;;;;;;;;5049318;28;20387;-64
2022/02/28 08:12:01;;;;;;;2.37;0.90;;;;;;;;;;5052969;28;20344;-64
2022/02/28 08:14:28;;;;;;;3.00;1.57;;;;;;;;;;5054601;28;20254;-64
2022/02/28 08:16:54;;;;;;;2.30;1.00;;;;;;;;;;5054476;28;20333;-64
2022/02/28 08:19:21;;;;;;;2.60;0.70;;;;;;;;;;5061022;28;20269;-64
2022/02/28 08:21:48;;;;;;;3.10;1.63;;;;;;;;;;5073647;28;20327;-64
2022/02/28 08:24:15;;;;;;;2.10;1.13;;;;;;;;;;5070079;28;20299;-64
2022/02/28 08:26:41;;;;;;;3.37;1.20;;;;;;;;;;5069170;28;20272;-64
2022/02/28 08:29:08;;;;;;;3.50;1.60;;;;;;;;;;5068800;28;20289;-64
2022/02/28 08:31:35;;;;;;;4.07;1.80;;;;;;;;;;5068586;28;20755;-64
2022/02/28 08:34:01;;;;;;;3.33;1.50;;;;;;;;;;5071728;28;20368;-64
2022/02/28 08:36:28;;;;;;;2.90;1.30;;;;;;;;;;5073876;28;20272;-64
2022/02/28 08:38:55;;;;;;;1.30;0.73;;;;;;;;;;5073096;28;20261;-64
2022/02/28 08:41:21;;;;;;;2.27;0.77;;;;;;;;;;5073652;28;20315;-64
2022/02/28 08:43:48;;;;;;;1.13;0.70;;;;;;;;;;5073796;28;20613;-64
2022/02/28 08:46:15;;;;;;;0.83;0.50;;;;;;;;;;5070435;28;20287;-65
2022/02/28 08:48:41;;;;;;;1.67;0.80;;;;;;;;;;5068326;28;20328;-64
2022/02/28 08:51:08;;;;;;;1.13;0.70;;;;;;;;;;5068103;28;20261;-64
2022/02/28 08:53:35;;;;;;;1.33;0.80;;;;;;;;;;5068060;28;20317;-64
2022/02/28 08:56:01;;;;;;;1.77;0.50;;;;;;;;;;5070955;28;20284;-64
2022/02/28 08:58:28;;;;;;;1.13;0.40;;;;;;;;;;5073335;28;20269;-64
2022/02/28 09:00:55;;;;;;;1.60;0.60;;;;;;;;;;5073109;28;20750;-64
2022/02/28 09:03:21;;;;;;;3.60;1.47;;;;;;;;;;5073411;28;20265;-64
2022/02/28 09:05:48;;;;;;;1.00;0.43;;;;;;;;;;5073613;28;20259;-64
2022/02/28 09:08:15;;;;;;;1.10;0.70;;;;;;;;;;5070171;28;20297;-64
2022/02/28 09:10:41;;;;;;;1.20;0.40;;;;;;;;;;5067293;28;20594;-65
2022/02/28 09:13:08;;;;;;;0.93;0.57;;;;;;;;;;5067844;28;20261;-64
2022/02/28 09:15:38;;;;;;;1.07;0.50;;;;;;;;;;5068029;28;20342;-64
2022/02/28 09:18:08;;;;;;;0.60;0.50;;;;;;;;;;5070426;28;20256;-64
2022/02/28 09:20:36;;;;;;;0.77;0.50;;;;;;;;;;5072972;28;20285;-64
2022/02/28 09:23:03;;;;;;;1.13;0.57;;;;;;;;;;5059347;28;20276;-63
2022/02/28 09:25:29;;;;;;;1.63;0.73;;;;;;;;;;5072505;28;20268;-64
2022/02/28 09:27:56;;;;;;;1.77;0.70;;;;;;;;;;5072887;28;20307;-64
2022/02/28 09:30:23;;;;;;;3.27;0.90;;;;;;;;;;5070343;28;20257;-64
2022/02/28 09:32:51;;;;;;;2.43;0.60;;;;;;;;;;5067207;28;20272;-64
2022/02/28 09:35:18;;;;;;;1.37;0.70;;;;;;;;;;5067623;28;20287;-64
2022/02/28 09:37:44;;;;;;;1.27;0.70;;;;;;;;;;5067745;28;20787;-64
2022/02/28 09:40:11;;;;;;;1.37;0.70;;;;;;;;;;5069385;28;20265;-65
2022/02/28 09:42:39;;;;;;;0.90;0.63;;;;;;;;;;5072347;28;20716;-64
2022/02/28 09:45:06;;;;;;;0.60;0.50;;;;;;;;;;5072562;28;20307;-64
2022/02/28 09:47:33;;;;;;;1.47;0.70;;;;;;;;;;5072778;28;20269;-64
2022/02/28 09:50:00;;;;;;;0.97;0.67;;;;;;;;;;5072350;28;20763;-64
2022/02/28 09:52:26;;;;;;;1.23;0.73;;;;;;;;;;5069841;28;20301;-64
2022/02/28 09:54:53;;;;;;;2.40;0.80;;;;;;;;;;5067472;28;20914;-64
2022/02/28 09:57:23;;;;;;;1.40;0.70;;;;;;;;;;5066305;28;20253;-64
2022/02/28 09:59:50;;;;;;;3.50;1.20;;;;;;;;;;5066812;28;20836;-64
2022/02/28 10:02:17;;;;;;;0.67;0.60;;;;;;;;;;5069111;28;20249;-64
2022/02/28 10:04:43;;;;;;;2.10;1.00;;;;;;;;;;5072105;28;20269;-64
2022/02/28 10:07:20;;;;;;;2.10;0.80;;;;;;;;;;5072026;28;20288;-63
2022/02/28 10:09:47;;;;;;;1.97;0.70;;;;;;;;;;5071050;28;20613;-64
2022/02/28 10:12:14;;;;;;;3.07;0.83;;;;;;;;;;5072207;28;20269;-63
2022/02/28 10:14:45;;;;;;;2.03;0.80;;;;;;;;;;5069499;28;20281;-64
2022/02/28 10:17:11;;;;;;;1.13;0.70;;;;;;;;;;5067240;28;20268;-64
2022/02/28 10:19:38;;;;;;;2.07;1.30;;;;;;;;;;5066440;28;20326;-64
2022/02/28 10:22:06;;;;;;;1.67;1.03;;;;;;;;;;5067145;28;20252;-64
2022/02/28 10:24:35;;;;;;;1.13;0.70;;;;;;;;;;5068183;28;20273;-65
2022/02/28 10:27:02;;;;;;;1.80;0.70;;;;;;;;;;5072013;28;20767;-64
2022/02/28 10:29:30;;;;;;;1.40;0.70;;;;;;;;;;5071951;28;20284;-64
2022/02/28 10:31:59;;;;;;;1.63;0.87;;;;;;;;;;5072219;28;20833;-64
2022/02/28 10:34:26;;;;;;;1.27;0.63;;;;;;;;;;5071823;28;20273;-64
2022/02/28 10:36:59;;;;;;;1.20;0.60;;;;;;;;;;5069237;28;20276;-64
2022/02/28 10:39:26;;;;;;;1.67;0.70;;;;;;;;;;5066596;28;20276;-64
2022/02/28 10:41:55;;;;;;;0.63;0.50;;;;;;;;;;5066256;28;20299;-64
2022/02/28 10:44:22;;;;;;;1.37;0.80;;;;;;;;;;5066443;28;20360;-64
2022/02/28 10:46:49;;;;;;;1.33;0.70;;;;;;;;;;5068984;28;20809;-64
2022/02/28 10:49:21;;;;;;;1.40;0.80;;;;;;;;;;5071532;28;20292;-64
2022/02/28 10:51:48;;;;;;;1.83;0.90;;;;;;;;;;5071376;28;20647;-64
2022/02/28 10:54:18;;;;;;;1.80;0.70;;;;;;;;;;5071684;28;20314;-64
2022/02/28 10:56:50;;;;;;;2.43;1.13;;;;;;;;;;5071992;28;20338;-64
2022/02/28 10:59:21;;;;;;;2.23;1.00;;;;;;;;;;5068659;28;20624;-63
2022/02/28 11:01:48;;;;;;;2.17;1.00;;;;;;;;;;5066379;28;20319;-64
2022/02/28 11:04:14;;;;;;;1.90;0.70;;;;;;;;;;5066168;28;20293;-65
2022/02/28 11:06:45;;;;;;;1.87;0.70;;;;;;;;;;5066512;28;20269;-64
2022/02/28 11:09:11;;;;;;;2.00;0.90;;;;;;;;;;5068850;28;20293;-64
2022/02/28 11:11:38;;;;;;;1.73;0.80;;;;;;;;;;5071612;28;20308;-64
2022/02/28 11:14:06;;;;;;;2.13;1.00;;;;;;;;;;5071697;28;20265;-64
2022/02/28 11:16:33;;;;;;;1.70;0.87;;;;;;;;;;5071743;28;20281;-64
2022/02/28 11:19:02;;;;;;;1.03;0.70;;;;;;;;;;5075462;28;20259;-65
2022/02/28 11:21:29;;;;;;;1.50;0.87;;;;;;;;;;5072224;28;20277;-63
2022/02/28 11:23:56;;;;;;;1.33;0.77;;;;;;;;;;5070070;28;20292;-64
2022/02/28 11:26:22;;;;;;;1.80;0.90;;;;;;;;;;5070260;28;20348;-63
2022/02/28 11:28:49;;;;;;;2.00;0.90;;;;;;;;;;5069964;28;20286;-65
2022/02/28 11:31:19;;;;;;;1.70;0.90;;;;;;;;;;5072220;28;20319;-63
2022/02/28 11:33:53;;;;;;;1.73;0.90;;;;;;;;;;5074955;28;20620;-65
2022/02/28 11:36:20;;;;;;;1.13;0.77;;;;;;;;;;5055191;28;20300;-65
2022/02/28 11:38:47;;;;;;;1.30;0.80;;;;;;;;;;5055357;28;20651;-64
2022/02/28 11:41:16;;;;;;;3.20;0.90;;;;;;;;;;5073111;28;20352;-64
2022/02/28 11:43:47;;;;;;;1.90;0.87;;;;;;;;;;5072066;28;20258;-63
2022/02/28 11:46:17;;;;;;;3.93;1.20;;;;;;;;;;5069607;28;20766;-64
2022/02/28 11:48:54;;;;;;;2.43;0.80;;;;;;;;;;5069171;28;20582;-63
2022/02/28 11:51:42;;;;;;;3.87;1.00;;;;;;;;;;5069803;28;20273;-63
2022/02/28 11:54:08;;;;;;;2.93;1.23;;;;;;;;;;5073405;28;20680;-64
2022/02/28 11:56:35;;;;;;;2.23;0.83;;;;;;;;;;5074239;28;20736;-64
2022/02/28 11:59:03;;;;;;;5.93;3.13;;;;;;;;;;5074669;28;20260;-64
2022/02/28 12:01:34;;;;;;;3.57;1.97;;;;;;;;;;5074916;28;20253;-63
2022/02/28 12:04:17;;;;;;;2.60;0.93;;;;;;;;;;5074617;28;20269;-64
2022/02/28 12:06:51;;;;;;;2.37;1.10;;;;;;;;;;5069103;28;20791;-64
2022/02/28 12:09:32;;;;;;;1.50;0.90;;;;;;;;;;5069058;28;20293;-63
2022/02/28 12:12:16;;;;;;;5.20;1.20;;;;;;;;;;5069511;28;20289;-63
2022/02/28 12:14:54;;;;;;;2.30;1.10;;;;;;;;;;5052767;28;20269;-64
2022/02/28 12:17:31;;;;;;;2.60;1.43;;;;;;;;;;5074534;28;20254;-63
2022/02/28 12:20:19;;;;;;;6.13;1.50;;;;;;;;;;5074067;28;20273;-64
2022/02/28 12:22:55;;;;;;;2.80;1.47;;;;;;;;;;5074009;28;20323;-63
2022/02/28 12:25:34;;;;;;;2.00;1.00;;;;;;;;;;5074041;28;20269;-64
2022/02/28 12:28:16;;;;;;;4.63;1.97;;;;;;;;;;5070959;28;20778;-64
2022/02/28 12:30:44;;;;;;;4.83;2.40;;;;;;;;;;5068710;28;20265;-64
2022/02/28 12:33:14;;;;;;;5.40;1.80;;;;;;;;;;5068754;28;20273;-64
2022/02/28 12:35:51;;;;;;;3.60;1.90;;;;;;;;;;5068500;28;20321;-63
2022/02/28 12:38:19;;;;;;;11.07;3.23;;;;;;;;;;5072153;28;20269;-63
2022/02/28 12:40:52;;;;;;;5.23;1.90;;;;;;;;;;5073134;28;20265;-64
2022/02/28 12:43:20;;;;;;;4.37;1.90;;;;;;;;;;5073585;28;20385;-63
2022/02/28 12:45:51;;;;;;;3.33;1.60;;;;;;;;;;5073885;28;20257;-63
2022/02/28 12:48:18;;;;;;;2.77;1.60;;;;;;;;;;5072941;28;20285;-64
2022/02/28 12:50:49;;;;;;;3.60;1.70;;;;;;;;;;5049694;28;20265;-63
2022/02/28 12:53:16;;;;;;;3.03;1.60;;;;;;;;;;5048261;28;20264;-64
2022/02/28 12:55:52;;;;;;;7.07;2.87;;;;;;;;;;5048715;28;20345;-63
2022/02/28 12:58:22;;;;;;;3.47;1.83;;;;;;;;;;5048347;28;20266;-63
2022/02/28 13:00:49;;;;;;;2.77;1.57;;;;;;;;;;5056298;28;20265;-64
2022/02/28 13:03:15;;;;;;;10.67;1.87;;;;;;;;;;5073672;28;20269;-63
2022/02/28 13:05:54;;;;;;;4.00;1.80;;;;;;;;;;5073000;28;20253;-64
2022/02/28 13:08:21;;;;;;;3.23;1.73;;;;;;;;;;5073469;28;20841;-63
2022/02/28 13:10:48;;;;;;;8.67;3.47;;;;;;;;;;5073406;28;20661;-64
2022/02/28 13:13:24;;;;;;;9.57;2.77;;;;;;;;;;5068744;28;20290;-64
2022/02/28 13:15:58;;;;;;;3.80;1.83;;;;;;;;;;5067883;28;20310;-65
2022/02/28 13:18:29;;;;;;;8.10;1.90;;;;;;;;;;5067946;28;20261;-63
2022/02/28 13:20:56;;;;;;;10.13;3.20;;;;;;;;;;5067593;28;20265;-64
2022/02/28 13:23:24;;;;;;;9.47;3.57;;;;;;;;;;5072893;28;20320;-63
2022/02/28 13:25:57;;;;;;;8.53;3.20;;;;;;;;;;5072948;28;20751;-63
2022/02/28 13:28:29;;;;;;;4.97;1.93;;;;;;;;;;5072488;28;20368;-64
2022/02/28 13:30:57;;;;;;;3.73;1.70;;;;;;;;;;5072328;28;20269;-63
2022/02/28 13:33:27;;;;;;;5.77;2.73;;;;;;;;;;5071966;28;20759;-63
2022/02/28 13:35:54;;;;;;;2.90;1.80;;;;;;;;;;5067238;28;20761;-64
2022/02/28 13:38:21;;;;;;;8.50;2.40;;;;;;;;;;5067614;28;20279;-64
2022/02/28 13:40:48;;;;;;;8.60;2.73;;;;;;;;;;5067163;28;20266;-66
2022/02/28 13:43:15;;;;;;;7.00;2.13;;;;;;;;;;5067008;28;20300;-64
2022/02/28 13:45:50;;;;;;;3.77;1.83;;;;;;;;;;5072554;28;20256;-64
2022/02/28 13:48:19;;;;;;;5.82;1.92;;;;;;;;;;5072584;28;20281;-64
2022/02/28 13:50:46;;;;;;;3.43;1.70;;;;;;;;;;5072516;28;20028;-64
2022/02/28 13:53:13;;;;;;;2.93;1.53;;;;;;;;;;5072315;28;20293;-64
2022/02/28 13:55:42;;;;;;;4.33;1.77;;;;;;;;;;5071141;28;20261;-64
2022/02/28 13:58:10;;;;;;;8.20;1.87;;;;;;;;;;5067192;28;20688;-64
2022/02/28 14:00:38;;;;;;;3.03;1.57;;;;;;;;;;5067227;28;20265;-64
2022/02/28 14:03:07;;;;;;;4.43;1.87;;;;;;;;;;5066919;28;20048;-64
2022/02/28 14:05:34;;;;;;;3.37;1.53;;;;;;;;;;5067031;28;20356;-65
2022/02/28 14:08:02;;;;;;;5.13;1.93;;;;;;;;;;5072501;28;20028;-64
2022/02/28 14:10:37;;;;;;;4.00;1.43;;;;;;;;;;5072197;28;20029;-64
2022/02/28 14:13:21;;;;;;;2.87;1.47;;;;;;;;;;5071989;28;20056;-64
2022/02/28 14:15:49;;;;;;;2.27;1.20;;;;;;;;;;5072115;28;20502;-64
2022/02/28 14:18:16;;;;;;;3.90;1.70;;;;;;;;;;5070193;28;20334;-65
2022/02/28 14:20:44;;;;;;;4.30;1.50;;;;;;;;;;5066895;28;20136;-65
2022/02/28 14:23:17;;;;;;;3.67;1.47;;;;;;;;;;5066162;28;20387;-65
2022/02/28 14:25:47;;;;;;;4.83;1.50;;;;;;;;;;5066756;28;20527;-64
2022/02/28 14:28:17;;;;;;;2.93;1.40;;;;;;;;;;5068617;28;20379;-64
2022/02/28 14:30:50;;;;;;;6.20;2.20;;;;;;;;;;5071539;28;20116;-67
2022/02/28 14:33:17;;;;;;;4.03;1.80;;;;;;;;;;5071859;28;20025;-65
2022/02/28 14:35:46;;;;;;;4.43;1.73;;;;;;;;;;5071845;28;20056;-65
2022/02/28 14:38:13;;;;;;;7.17;2.30;;;;;;;;;;5072001;28;20021;-64
2022/02/28 14:40:40;;;;;;;6.57;1.73;;;;;;;;;;5069234;28;20379;-65
2022/02/28 14:43:07;;;;;;;4.10;1.80;;;;;;;;;;5066484;28;20119;-64
2022/02/28 14:45:34;;;;;;;3.60;1.43;;;;;;;;;;5066252;28;20116;-65
2022/02/28 14:48:00;;;;;;;2.17;1.40;;;;;;;;;;5066494;28;20037;-65